Time;durP1;ratioP1;P1;durP2;ratioP2;P2;SDS_P1;SDS_P2;PMS_P1;PMS_P2;Temp;Humidity;BMP_temperature;BMP_pressure;BME280_temperature;BME280_humidity;BME280_pressure;Samples;Min_cycle;Max_cycle;Signal;HPM_P1;HPM_P2
2022/12/20 00:01:59;;;;;;;2.20;1.33;;;17.80;59.10;;;;;;7407797;19;19922;-60
2022/12/20 00:04:28;;;;;;;2.38;1.40;;;17.70;59.10;;;;;;7404078;19;19983;-60
2022/12/20 00:07:00;;;;;;;2.50;1.42;;;17.70;59.10;;;;;;7403050;19;19970;-60
2022/12/20 00:09:30;;;;;;;2.25;1.42;;;17.70;59.10;;;;;;7403890;19;19925;-60
2022/12/20 00:11:59;;;;;;;2.33;1.20;;;17.70;59.20;;;;;;7404243;19;20371;-60
2022/12/20 00:14:27;;;;;;;1.85;1.30;;;17.70;59.20;;;;;;7404927;19;19918;-60
2022/12/20 00:16:56;;;;;;;2.85;1.20;;;17.70;59.90;;;;;;7405220;19;19930;-60
2022/12/20 00:19:25;;;;;;;2.17;0.75;;;17.70;59.30;;;;;;7403750;19;20289;-60
2022/12/20 00:21:59;;;;;;;2.65;1.67;;;17.60;59.90;;;;;;7403603;19;19922;-61
2022/12/20 00:24:28;;;;;;;2.28;1.17;;;17.60;59.30;;;;;;7403294;19;20334;-61
2022/12/20 00:26:57;;;;;;;2.78;1.40;;;17.60;59.30;;;;;;7404096;19;19917;-61
2022/12/20 00:29:26;;;;;;;2.20;1.27;;;17.60;59.30;;;;;;7403981;19;19915;-60
2022/12/20 00:31:55;;;;;;;2.15;1.15;;;17.60;59.30;;;;;;7404660;19;19921;-60
2022/12/20 00:34:24;;;;;;;2.78;2.30;;;17.60;59.30;;;;;;7404193;19;19922;-60
2022/12/20 00:36:54;;;;;;;2.22;1.33;;;17.60;60.00;;;;;;7403215;19;20333;-61
2022/12/20 00:39:26;;;;;;;3.88;1.73;;;17.60;59.30;;;;;;7403727;19;19936;-60
2022/12/20 00:41:55;;;;;;;2.90;1.25;;;17.60;60.00;;;;;;7401427;19;19923;-60
2022/12/20 00:44:24;;;;;;;1.83;1.20;;;17.60;59.30;;;;;;7402446;19;19924;-60
2022/12/20 00:46:53;;;;;;;2.13;1.50;;;17.60;59.30;;;;;;7402998;19;19921;-60
2022/12/20 00:49:22;;;;;;;2.75;1.33;;;17.60;59.30;;;;;;7405726;19;19915;-60
2022/12/20 00:51:51;;;;;;;2.75;1.20;;;17.60;59.40;;;;;;7403293;19;19918;-60
2022/12/20 00:54:20;;;;;;;2.38;2.17;;;17.50;59.30;;;;;;7404266;19;19915;-60
2022/12/20 00:56:51;;;;;;;2.15;1.50;;;17.50;60.00;;;;;;7405048;19;19925;-60
2022/12/20 00:59:20;;;;;;;2.00;1.23;;;17.50;59.40;;;;;;7403194;19;20396;-60
2022/12/20 01:01:49;;;;;;;2.53;1.67;;;17.50;59.50;;;;;;7404021;19;19919;-60
2022/12/20 01:04:19;;;;;;;2.13;0.70;;;17.50;59.50;;;;;;7403857;19;20349;-60
2022/12/20 01:06:49;;;;;;;2.28;1.35;;;17.50;59.40;;;;;;7404558;19;19926;-60
2022/12/20 01:09:18;;;;;;;2.47;1.17;;;17.50;59.40;;;;;;7405737;19;20378;-60
2022/12/20 01:11:50;;;;;;;2.35;1.52;;;17.50;59.50;;;;;;7402735;19;19919;-61
2022/12/20 01:14:20;;;;;;;2.42;1.52;;;17.40;59.40;;;;;;7402425;19;19923;-60
2022/12/20 01:16:49;;;;;;;2.28;1.33;;;17.40;59.40;;;;;;7404443;19;19929;-60
2022/12/20 01:19:20;;;;;;;2.55;1.55;;;17.40;59.40;;;;;;7410292;19;19918;-60
2022/12/20 01:21:49;;;;;;;2.20;1.30;;;17.40;59.50;;;;;;7410113;19;19918;-61
2022/12/20 01:24:20;;;;;;;1.95;1.40;;;17.40;59.50;;;;;;7409792;19;19926;-60
2022/12/20 01:26:52;;;;;;;2.88;1.63;;;17.40;59.50;;;;;;7412495;19;19927;-61
2022/12/20 01:29:21;;;;;;;2.13;1.70;;;17.40;59.50;;;;;;7407196;19;19918;-61
2022/12/20 01:32:00;;;;;;;2.08;1.42;;;17.40;59.50;;;;;;7408742;19;19929;-60
2022/12/20 01:34:29;;;;;;;2.05;1.20;;;17.30;59.50;;;;;;7410275;19;19926;-60
2022/12/20 01:36:59;;;;;;;2.00;1.17;;;17.30;59.50;;;;;;7410055;19;20337;-61
2022/12/20 01:39:28;;;;;;;2.03;1.35;;;17.30;59.50;;;;;;7411604;19;19944;-60
2022/12/20 01:42:03;;;;;;;2.10;1.30;;;17.30;59.50;;;;;;7407577;19;19971;-60
2022/12/20 01:45:01;;;;;;;2.17;1.08;;;17.30;59.50;;;;;;7406998;19;19986;-61
2022/12/20 01:47:33;;;;;;;2.13;1.27;;;17.30;60.20;;;;;;7408840;19;19982;-61
2022/12/20 01:50:06;;;;;;;1.88;1.17;;;17.30;59.60;;;;;;7407507;19;19918;-60
2022/12/20 01:52:38;;;;;;;2.00;1.20;;;17.30;59.60;;;;;;7412172;19;19919;-61
2022/12/20 01:55:11;;;;;;;2.20;1.27;;;17.30;59.70;;;;;;7407841;19;19910;-60
2022/12/20 01:57:49;;;;;;;1.50;0.43;;;17.30;59.60;;;;;;7410991;19;20295;-60
2022/12/20 02:00:19;;;;;;;2.60;2.30;;;17.30;59.60;;;;;;7408095;19;19994;-61
2022/12/20 02:02:49;;;;;;;1.50;0.52;;;17.30;59.70;;;;;;7407556;19;20276;-60
2022/12/20 02:05:21;;;;;;;2.45;1.60;;;17.30;59.70;;;;;;7406826;19;19918;-60
2022/12/20 02:07:57;;;;;;;1.90;1.05;;;17.20;59.70;;;;;;7407399;19;19930;-61
2022/12/20 02:10:37;;;;;;;1.90;1.10;;;17.20;59.70;;;;;;7412297;19;19939;-60
2022/12/20 02:13:21;;;;;;;2.50;1.10;;;17.20;59.70;;;;;;7407828;19;20370;-60
2022/12/20 02:15:55;;;;;;;1.77;0.90;;;17.20;59.70;;;;;;7407331;19;20319;-60
2022/12/20 02:18:27;;;;;;;1.60;1.45;;;17.20;59.70;;;;;;7407666;19;19914;-60
2022/12/20 02:21:18;;;;;;;2.15;1.40;;;17.20;60.30;;;;;;7407659;19;19914;-60
2022/12/20 02:24:08;;;;;;;2.20;1.20;;;17.20;60.30;;;;;;7405683;19;20552;-60
2022/12/20 02:27:03;;;;;;;2.10;1.23;;;17.20;59.80;;;;;;7407299;19;20370;-60
2022/12/20 02:29:39;;;;;;;2.03;1.15;;;17.20;59.70;;;;;;7407513;19;19918;-60
2022/12/20 02:32:16;;;;;;;2.25;1.33;;;17.20;59.70;;;;;;7409644;19;20272;-60
2022/12/20 02:34:47;;;;;;;2.55;1.00;;;17.20;59.70;;;;;;7406818;19;19923;-60
2022/12/20 02:37:17;;;;;;;1.95;1.45;;;17.20;59.70;;;;;;7406703;19;19993;-60
2022/12/20 02:39:48;;;;;;;1.50;0.77;;;17.20;59.70;;;;;;7406423;19;19941;-60
2022/12/20 02:42:22;;;;;;;1.67;1.15;;;17.20;59.70;;;;;;7406968;19;19986;-61
2022/12/20 02:47:44;;;;;;;2.10;1.35;;;17.20;59.80;;;;;;7408011;19;19930;-60
2022/12/20 02:50:14;;;;;;;2.17;1.85;;;17.10;59.70;;;;;;7406735;19;19954;-61
2022/12/20 02:52:43;;;;;;;1.90;1.00;;;17.10;59.70;;;;;;7406750;19;19926;-60
2022/12/20 02:55:13;;;;;;;2.70;1.17;;;17.10;59.80;;;;;;7406611;19;19918;-60
2022/12/20 02:57:47;;;;;;;1.60;1.20;;;17.10;59.80;;;;;;7406316;19;20337;-60
2022/12/20 03:00:18;;;;;;;2.10;1.50;;;17.10;59.80;;;;;;7406188;19;20404;-61
2022/12/20 03:05:36;;;;;;;2.20;0.98;;;17.10;59.80;;;;;;7408039;19;19921;-61
2022/12/20 03:08:05;;;;;;;1.63;1.00;;;17.10;59.80;;;;;;7406068;19;19926;-60
2022/12/20 03:10:34;;;;;;;1.65;0.90;;;17.10;59.90;;;;;;7405660;19;19935;-60
2022/12/20 03:13:03;;;;;;;1.90;1.00;;;17.10;59.90;;;;;;7408052;19;20330;-60
2022/12/20 03:15:32;;;;;;;;;;;17.10;59.90;;;;;;7408036;19;19919;-60
2022/12/20 03:18:04;;;;;;;2.25;1.10;;;17.10;59.90;;;;;;7406236;19;19910;-61
2022/12/20 03:20:33;;;;;;;1.55;0.93;;;17.00;59.80;;;;;;7405915;19;19981;-60
2022/12/20 03:23:02;;;;;;;2.25;1.08;;;17.10;59.90;;;;;;7408584;19;19954;-60
2022/12/20 03:25:31;;;;;;;1.63;0.63;;;17.10;60.50;;;;;;7404327;19;20318;-60
2022/12/20 03:28:00;;;;;;;1.77;1.30;;;17.10;59.90;;;;;;7405559;19;19948;-60
2022/12/20 03:30:29;;;;;;;2.35;1.05;;;17.10;59.90;;;;;;7405517;19;19910;-60
2022/12/20 03:32:58;;;;;;;2.70;1.27;;;17.10;60.00;;;;;;7406806;19;19922;-60
2022/12/20 03:35:29;;;;;;;2.30;1.55;;;17.00;60.00;;;;;;7405241;19;19918;-60
2022/12/20 03:37:58;;;;;;;1.90;1.33;;;17.00;59.90;;;;;;7405099;19;19911;-60
2022/12/20 03:40:27;;;;;;;1.73;1.45;;;17.00;60.00;;;;;;7404712;19;19944;-60
2022/12/20 03:42:56;;;;;;;1.60;1.27;;;17.00;60.00;;;;;;7402132;19;19915;-60
2022/12/20 03:45:25;;;;;;;2.05;1.13;;;17.00;60.50;;;;;;7405717;19;19925;-60
2022/12/20 03:47:54;;;;;;;1.77;1.10;;;17.00;60.00;;;;;;7404722;19;20348;-60
2022/12/20 03:50:23;;;;;;;2.60;1.20;;;17.00;60.00;;;;;;7405282;19;19918;-61
2022/12/20 03:52:55;;;;;;;1.52;0.93;;;17.00;60.00;;;;;;7405307;19;19921;-60
2022/12/20 03:55:24;;;;;;;1.88;1.15;;;17.00;60.00;;;;;;7405047;19;19934;-60
2022/12/20 03:57:52;;;;;;;2.22;1.45;;;17.00;60.00;;;;;;7407976;19;19918;-60
2022/12/20 04:00:23;;;;;;;1.98;1.15;;;17.00;60.00;;;;;;7405625;19;20338;-61
2022/12/20 04:02:52;;;;;;;1.80;1.23;;;17.00;60.00;;;;;;7407257;19;19926;-60
2022/12/20 04:05:21;;;;;;;1.90;1.17;;;17.00;60.10;;;;;;7406236;19;19919;-60
2022/12/20 04:07:50;;;;;;;1.98;1.38;;;17.00;60.20;;;;;;7312337;19;19914;-60
2022/12/20 04:10:21;;;;;;;2.22;1.10;;;17.00;60.10;;;;;;7406056;19;19924;-61
2022/12/20 04:12:50;;;;;;;1.83;1.00;;;17.00;60.10;;;;;;7408302;19;19955;-60
2022/12/20 04:15:19;;;;;;;1.83;0.93;;;16.90;60.10;;;;;;7404176;19;19944;-60
2022/12/20 04:17:49;;;;;;;2.33;1.38;;;16.90;60.10;;;;;;7404612;19;19918;-60
2022/12/20 04:20:22;;;;;;;2.03;1.13;;;17.00;60.20;;;;;;7404485;19;19934;-60
2022/12/20 04:22:52;;;;;;;2.03;1.10;;;16.90;60.10;;;;;;7405579;19;19911;-60
2022/12/20 04:25:24;;;;;;;1.83;1.10;;;16.90;60.10;;;;;;7406269;19;19919;-60
2022/12/20 04:27:53;;;;;;;1.83;1.23;;;16.90;60.20;;;;;;7408010;19;19919;-60
2022/12/20 04:30:22;;;;;;;2.03;1.25;;;16.90;60.20;;;;;;7407533;19;19941;-61
2022/12/20 04:32:53;;;;;;;1.63;0.80;;;16.90;60.20;;;;;;7404381;19;19919;-60
2022/12/20 04:35:22;;;;;;;1.80;1.02;;;16.90;60.20;;;;;;7404091;19;19914;-61
2022/12/20 04:37:51;;;;;;;1.85;1.20;;;16.90;60.20;;;;;;7404025;19;19911;-61
2022/12/20 04:40:21;;;;;;;1.90;1.35;;;16.90;60.20;;;;;;7403315;19;19926;-60
2022/12/20 04:42:52;;;;;;;1.60;0.98;;;16.90;60.30;;;;;;7403387;19;19918;-60
2022/12/20 04:45:21;;;;;;;1.15;0.30;;;16.90;60.30;;;;;;7403432;19;19915;-61
2022/12/20 04:47:50;;;;;;;1.75;1.15;;;16.90;60.30;;;;;;7407240;19;19936;-61
2022/12/20 04:50:19;;;;;;;1.83;0.50;;;16.90;60.30;;;;;;7403253;19;20261;-61
2022/12/20 04:55:29;;;;;;;1.73;0.35;;;16.80;60.30;;;;;;7403097;19;19925;-61
2022/12/20 04:58:01;;;;;;;2.25;0.40;;;16.90;60.40;;;;;;7402855;19;19922;-60
2022/12/20 05:00:31;;;;;;;1.77;1.02;;;16.80;60.30;;;;;;7402705;19;20007;-60
2022/12/20 05:03:00;;;;;;;1.65;0.82;;;16.80;60.30;;;;;;7401715;19;19978;-61
2022/12/20 05:05:32;;;;;;;1.83;0.47;;;16.80;60.30;;;;;;7397756;19;19918;-61
2022/12/20 05:08:01;;;;;;;1.90;1.05;;;16.80;60.40;;;;;;7406148;19;19928;-60
2022/12/20 05:10:30;;;;;;;1.90;1.00;;;16.80;60.40;;;;;;7404915;19;19947;-60
2022/12/20 05:13:02;;;;;;;1.52;1.10;;;16.80;60.40;;;;;;7405468;19;19930;-60
2022/12/20 05:15:31;;;;;;;2.45;0.93;;;16.80;60.50;;;;;;7401974;19;19969;-60
2022/12/20 05:18:01;;;;;;;1.52;0.95;;;16.80;60.40;;;;;;7405379;19;19952;-60
2022/12/20 05:20:33;;;;;;;1.77;1.67;;;16.80;60.40;;;;;;7402403;19;19914;-60
2022/12/20 05:28:31;;;;;;;1.60;1.25;;;16.80;60.50;;;;;;7405901;19;19926;-60
2022/12/20 05:31:03;;;;;;;1.85;1.25;;;16.80;61.10;;;;;;7401597;19;19933;-60
2022/12/20 05:33:32;;;;;;;2.10;0.32;;;16.80;60.50;;;;;;7401769;19;20292;-60
2022/12/20 05:36:22;;;;;;;1.45;0.40;;;16.80;60.50;;;;;;7400204;19;19946;-60
2022/12/20 05:39:10;;;;;;;1.50;0.30;;;16.80;60.50;;;;;;7399990;19;20253;-60
2022/12/20 05:41:59;;;;;;;1.95;1.00;;;16.80;60.50;;;;;;7400467;19;19922;-61
2022/12/20 05:44:51;;;;;;;1.40;0.80;;;16.80;60.50;;;;;;7400323;19;19911;-60
2022/12/20 05:47:20;;;;;;;1.67;0.70;;;16.80;60.50;;;;;;7399548;19;19926;-60
2022/12/20 05:49:49;;;;;;;1.67;0.20;;;16.80;60.40;;;;;;7401236;19;20263;-60
2022/12/20 05:52:18;;;;;;;1.42;0.82;;;16.90;60.50;;;;;;7401083;19;20354;-60
2022/12/20 05:54:49;;;;;;;1.88;1.27;;;16.90;60.50;;;;;;7401161;19;19911;-60
2022/12/20 05:57:19;;;;;;;2.42;1.23;;;16.90;60.40;;;;;;7400010;19;20331;-60
2022/12/20 05:59:50;;;;;;;1.98;0.82;;;16.90;60.40;;;;;;7401819;19;19919;-60
2022/12/20 06:02:20;;;;;;;1.55;0.85;;;16.90;60.40;;;;;;7398691;19;19915;-60
2022/12/20 06:04:49;;;;;;;1.05;0.77;;;16.90;60.30;;;;;;7401425;19;19919;-60
2022/12/20 06:07:18;;;;;;;1.58;0.93;;;17.00;60.40;;;;;;7403671;19;19922;-60
2022/12/20 06:09:47;;;;;;;1.58;0.80;;;17.00;60.30;;;;;;7411530;19;19943;-60
2022/12/20 06:12:15;;;;;;;1.67;0.98;;;17.00;60.30;;;;;;7407792;19;19930;-61
2022/12/20 06:14:47;;;;;;;1.70;1.10;;;17.00;60.30;;;;;;7408942;19;19918;-60
2022/12/20 06:17:20;;;;;;;2.33;0.98;;;17.00;60.20;;;;;;7409796;19;20349;-60
2022/12/20 06:19:50;;;;;;;2.22;1.13;;;17.10;60.30;;;;;;7409625;19;19990;-61
2022/12/20 06:22:19;;;;;;;1.70;1.23;;;17.10;60.30;;;;;;7407613;19;19925;-61
2022/12/20 06:24:48;;;;;;;1.85;1.02;;;17.10;60.30;;;;;;7408988;19;19943;-60
2022/12/20 06:27:17;;;;;;;2.00;1.25;;;17.10;60.30;;;;;;7405312;19;19952;-60
2022/12/20 06:29:53;;;;;;;1.35;1.08;;;17.10;60.20;;;;;;7410296;19;19982;-61
2022/12/20 06:32:24;;;;;;;1.25;0.20;;;17.10;60.20;;;;;;7406399;19;20267;-60
2022/12/20 06:34:53;;;;;;;1.67;0.70;;;17.10;60.20;;;;;;7406866;19;19926;-60
2022/12/20 06:37:22;;;;;;;1.70;0.95;;;17.20;60.20;;;;;;7406762;19;19928;-61
2022/12/20 06:39:51;;;;;;;1.27;0.30;;;17.10;60.20;;;;;;7406678;19;20265;-60
2022/12/20 06:42:23;;;;;;;1.55;1.00;;;17.20;60.20;;;;;;7410709;19;19914;-60
2022/12/20 06:44:52;;;;;;;1.40;1.20;;;17.20;60.20;;;;;;7407160;19;19922;-60
2022/12/20 06:47:24;;;;;;;1.80;1.55;;;17.20;60.20;;;;;;7409151;19;20566;-60
2022/12/20 06:49:53;;;;;;;1.48;0.85;;;17.20;60.20;;;;;;7406295;19;19918;-60
2022/12/20 06:52:22;;;;;;;1.27;0.30;;;17.20;60.20;;;;;;7406362;19;19943;-60
2022/12/20 06:54:51;;;;;;;1.90;1.08;;;17.20;60.10;;;;;;7406131;19;19923;-60
2022/12/20 06:57:20;;;;;;;1.83;1.25;;;17.20;60.20;;;;;;7409539;19;20353;-61
2022/12/20 06:59:49;;;;;;;1.40;0.80;;;17.20;60.10;;;;;;7404965;19;19936;-61
2022/12/20 07:02:18;;;;;;;1.52;1.17;;;17.20;60.10;;;;;;7405565;19;20362;-60
2022/12/20 07:04:49;;;;;;;1.67;0.88;;;17.20;60.20;;;;;;7404921;19;19930;-60
2022/12/20 07:07:19;;;;;;;3.10;1.08;;;17.30;60.30;;;;;;7406908;19;19923;-61
2022/12/20 07:09:47;;;;;;;2.65;0.75;;;17.30;60.20;;;;;;7405381;19;20355;-71
2022/12/20 07:12:22;;;;;;;1.27;0.35;;;17.30;60.30;;;;;;7408243;19;20269;-69
2022/12/20 07:14:51;;;;;;;3.35;1.20;;;17.30;60.30;;;;;;7405777;19;20369;-72
2022/12/20 07:17:19;;;;;;;1.98;1.27;;;17.40;60.40;;;;;;7371242;19;19935;-69
2022/12/20 07:19:52;;;;;;;1.50;0.68;;;17.40;60.40;;;;;;7407296;19;19970;-59
2022/12/20 07:22:21;;;;;;;1.23;0.90;;;17.40;60.40;;;;;;7406468;19;19968;-59
2022/12/20 07:24:55;;;;;;;2.35;1.27;;;17.40;60.40;;;;;;7405348;19;19915;-61
2022/12/20 07:27:24;;;;;;;1.40;0.70;;;17.40;60.40;;;;;;7403917;19;19914;-60
2022/12/20 07:29:53;;;;;;;1.38;0.63;;;17.40;60.40;;;;;;7406042;19;19915;-60
2022/12/20 07:32:21;;;;;;;2.60;0.80;;;17.40;60.40;;;;;;7403894;19;19948;-61
2022/12/20 07:34:58;;;;;;;2.05;1.38;;;17.40;61.00;;;;;;7400527;19;19918;-60
2022/12/20 07:37:27;;;;;;;2.25;0.90;;;17.40;60.50;;;;;;7403170;19;19922;-60
2022/12/20 07:39:56;;;;;;;1.80;1.10;;;17.40;60.50;;;;;;7408367;19;19922;-59
2022/12/20 07:42:25;;;;;;;1.58;0.70;;;17.40;60.50;;;;;;7409872;19;19982;-59
2022/12/20 07:44:54;;;;;;;1.58;0.90;;;17.40;60.50;;;;;;7402999;19;19927;-59
2022/12/20 07:47:23;;;;;;;1.27;0.70;;;17.50;60.50;;;;;;7402670;19;19982;-59
2022/12/20 07:49:52;;;;;;;1.08;0.30;;;17.40;60.50;;;;;;7405273;19;20312;-59
2022/12/20 07:52:26;;;;;;;1.33;0.73;;;17.40;60.50;;;;;;7405962;19;19926;-59
2022/12/20 07:55:00;;;;;;;1.45;0.45;;;17.40;60.50;;;;;;7404849;19;20292;-59
2022/12/20 07:57:33;;;;;;;1.92;1.50;;;17.50;60.50;;;;;;7405827;19;19950;-60
2022/12/20 08:00:03;;;;;;;2.20;0.90;;;17.40;60.50;;;;;;7405303;19;19923;-60
2022/12/20 08:02:42;;;;;;;1.08;0.20;;;17.40;60.50;;;;;;7404901;19;20405;-59
2022/12/20 08:05:12;;;;;;;1.23;0.17;;;17.40;60.50;;;;;;7403636;19;20011;-59
2022/12/20 08:07:45;;;;;;;1.48;0.82;;;17.40;60.50;;;;;;7404786;19;19922;-60
2022/12/20 08:10:18;;;;;;;2.28;0.90;;;17.40;60.50;;;;;;7404054;19;19927;-59
2022/12/20 08:12:49;;;;;;;1.10;0.60;;;17.40;60.50;;;;;;7404211;19;19914;-59
2022/12/20 08:15:18;;;;;;;1.48;0.88;;;17.40;60.60;;;;;;7404117;19;19929;-59
2022/12/20 08:17:47;;;;;;;1.17;0.70;;;17.40;60.60;;;;;;7403482;19;19970;-60
2022/12/20 08:20:17;;;;;;;1.25;0.60;;;17.50;60.60;;;;;;7404026;19;19974;-60
2022/12/20 08:22:48;;;;;;;1.52;1.00;;;17.40;60.60;;;;;;7403177;19;19915;-59
2022/12/20 08:25:18;;;;;;;2.17;1.02;;;17.40;60.60;;;;;;7403421;19;19943;-59
2022/12/20 08:27:47;;;;;;;1.80;1.25;;;17.50;60.60;;;;;;7401053;19;19970;-59
2022/12/20 08:30:17;;;;;;;1.60;0.80;;;17.50;60.60;;;;;;7402752;19;19931;-59
2022/12/20 08:32:46;;;;;;;2.45;0.80;;;17.50;60.60;;;;;;7406116;19;20010;-59
2022/12/20 08:35:15;;;;;;;2.10;1.00;;;17.50;60.70;;;;;;7404905;19;19919;-60
2022/12/20 08:37:44;;;;;;;1.73;0.77;;;17.50;60.60;;;;;;7406521;19;19931;-59
2022/12/20 08:40:17;;;;;;;1.95;0.90;;;17.40;60.60;;;;;;7405396;19;19922;-59
2022/12/20 08:42:48;;;;;;;1.48;0.80;;;17.50;60.60;;;;;;7404407;19;19922;-59
2022/12/20 08:45:17;;;;;;;1.42;0.80;;;17.50;60.60;;;;;;7402584;19;19986;-59
2022/12/20 08:47:46;;;;;;;0.85;0.20;;;17.50;60.70;;;;;;7402245;19;20258;-59
2022/12/20 08:50:15;;;;;;;1.38;1.05;;;17.50;60.70;;;;;;7404149;19;19965;-59
2022/12/20 08:52:44;;;;;;;1.35;0.22;;;17.50;60.70;;;;;;7401709;19;19981;-59
2022/12/20 08:55:21;;;;;;;1.40;0.85;;;17.40;60.60;;;;;;7403065;19;19915;-59
2022/12/20 08:57:50;;;;;;;1.35;0.70;;;17.50;61.30;;;;;;7405881;19;19914;-59
2022/12/20 09:00:22;;;;;;;1.52;0.95;;;17.50;60.70;;;;;;7403763;19;20397;-59
2022/12/20 09:02:51;;;;;;;1.20;0.70;;;17.50;60.70;;;;;;7403909;19;19923;-59
2022/12/20 09:05:20;;;;;;;1.15;0.98;;;17.40;60.60;;;;;;7405941;19;19921;-59
2022/12/20 09:07:49;;;;;;;1.30;0.30;;;17.50;61.20;;;;;;7401470;19;20280;-59
2022/12/20 09:10:22;;;;;;;1.75;0.30;;;17.50;60.70;;;;;;7402421;19;19919;-59
2022/12/20 09:13:02;;;;;;;2.00;0.90;;;17.50;60.70;;;;;;7404304;19;19961;-60
2022/12/20 09:15:33;;;;;;;1.00;0.20;;;17.50;60.70;;;;;;7402714;19;20010;-60
2022/12/20 09:18:02;;;;;;;0.77;0.20;;;17.50;60.70;;;;;;7405552;19;20320;-59
2022/12/20 09:20:34;;;;;;;1.30;0.68;;;17.50;60.70;;;;;;7404723;19;20341;-59
2022/12/20 09:23:03;;;;;;;1.50;0.90;;;17.50;60.70;;;;;;7403167;19;19915;-59
2022/12/20 09:25:36;;;;;;;1.70;0.88;;;17.50;60.70;;;;;;7400795;19;19938;-59
2022/12/20 09:28:05;;;;;;;1.73;0.73;;;17.50;60.70;;;;;;7401114;19;19987;-59
2022/12/20 09:30:37;;;;;;;1.60;0.85;;;17.50;60.80;;;;;;7401012;19;20360;-59
2022/12/20 09:33:06;;;;;;;1.45;0.75;;;17.50;60.80;;;;;;7401424;19;19918;-60
2022/12/20 09:35:35;;;;;;;2.45;0.82;;;17.50;60.80;;;;;;7404065;19;20332;-59
2022/12/20 09:38:04;;;;;;;1.80;1.58;;;17.50;60.70;;;;;;7403199;19;19923;-60
2022/12/20 09:40:38;;;;;;;0.82;0.20;;;17.50;60.80;;;;;;7403335;19;19915;-59
2022/12/20 09:43:10;;;;;;;1.65;0.80;;;17.50;60.80;;;;;;7408649;19;19926;-59
2022/12/20 09:45:40;;;;;;;1.55;0.90;;;17.50;60.80;;;;;;7406508;19;19915;-59
2022/12/20 09:48:11;;;;;;;;;;;17.50;60.80;;;;;;7412216;19;19918;-59
2022/12/20 09:50:52;;;;;;;1.27;0.35;;;17.50;60.80;;;;;;7409336;19;20292;-59
2022/12/20 09:53:35;;;;;;;1.88;0.93;;;17.50;60.80;;;;;;7411214;19;19950;-59
2022/12/20 09:56:12;;;;;;;1.52;0.70;;;17.50;60.80;;;;;;7408985;19;20345;-59
2022/12/20 09:58:58;;;;;;;1.80;1.35;;;17.50;60.80;;;;;;7407287;19;19925;-59
2022/12/20 10:01:29;;;;;;;1.38;0.77;;;17.50;61.40;;;;;;7409222;19;19919;-60
2022/12/20 10:04:01;;;;;;;2.22;0.80;;;17.50;60.80;;;;;;7410695;19;19934;-60
2022/12/20 10:06:50;;;;;;;0.90;0.10;;;17.50;60.80;;;;;;7411186;19;19954;-60
2022/12/20 10:09:43;;;;;;;3.28;1.00;;;17.50;60.80;;;;;;7411507;19;19931;-59
2022/12/20 10:12:26;;;;;;;2.25;0.88;;;17.50;60.90;;;;;;7412307;19;19919;-60
2022/12/20 10:15:11;;;;;;;1.30;0.90;;;17.50;60.80;;;;;;7407327;19;19938;-59
2022/12/20 10:17:51;;;;;;;2.25;1.23;;;17.50;60.90;;;;;;7406408;19;20338;-60
2022/12/20 10:20:32;;;;;;;1.08;0.63;;;17.50;60.80;;;;;;7407293;19;19919;-59
2022/12/20 10:23:14;;;;;;;1.15;0.77;;;17.50;60.80;;;;;;7409404;19;19925;-59
2022/12/20 10:25:44;;;;;;;1.27;0.80;;;17.50;60.80;;;;;;7410482;19;20351;-61
2022/12/20 10:28:18;;;;;;;1.92;0.88;;;17.50;60.80;;;;;;7408419;19;19923;-59
2022/12/20 10:30:47;;;;;;;1.83;0.98;;;17.60;60.90;;;;;;7407486;19;19923;-60
2022/12/20 10:33:21;;;;;;;1.60;1.23;;;17.50;60.90;;;;;;7408219;19;19929;-60
2022/12/20 10:35:55;;;;;;;1.40;0.75;;;17.50;60.90;;;;;;7407665;19;19927;-59
2022/12/20 10:38:46;;;;;;;1.33;0.80;;;17.50;60.90;;;;;;7405927;19;19919;-61
2022/12/20 10:41:18;;;;;;;1.30;0.20;;;17.50;60.90;;;;;;7407480;19;19923;-61
2022/12/20 10:44:03;;;;;;;1.77;0.75;;;17.50;61.00;;;;;;7407327;19;19952;-59
2022/12/20 10:46:41;;;;;;;1.40;0.77;;;17.50;61.00;;;;;;7409128;19;19915;-60
2022/12/20 10:49:31;;;;;;;1.48;0.80;;;17.50;61.00;;;;;;7405825;19;19922;-59
2022/12/20 10:52:02;;;;;;;2.13;0.45;;;17.50;61.00;;;;;;7407339;19;19926;-61
2022/12/20 10:54:34;;;;;;;2.13;0.95;;;17.50;61.00;;;;;;7407625;19;19919;-59
2022/12/20 10:57:14;;;;;;;2.88;1.05;;;17.50;61.00;;;;;;7407191;19;20345;-60
2022/12/20 10:59:50;;;;;;;1.50;0.85;;;17.50;61.00;;;;;;7408508;19;19919;-60
2022/12/20 11:02:31;;;;;;;1.20;0.75;;;17.60;61.10;;;;;;7407130;19;19919;-59
2022/12/20 11:05:23;;;;;;;1.30;0.90;;;17.50;61.00;;;;;;7406092;19;20341;-60
2022/12/20 11:07:58;;;;;;;1.10;0.82;;;17.60;61.10;;;;;;7395889;19;19967;-82
2022/12/20 11:10:28;;;;;;;1.42;0.30;;;17.60;61.00;;;;;;7404039;19;20631;-75
2022/12/20 11:12:59;;;;;;;1.30;0.68;;;17.70;60.90;;;;;;7409805;19;19922;-81
2022/12/20 11:15:33;;;;;;;2.00;0.52;;;17.80;60.80;;;;;;7409254;19;20014;-68
2022/12/20 11:18:07;;;;;;;1.77;0.90;;;17.90;60.80;;;;;;7407933;19;19922;-80
2022/12/20 11:20:44;;;;;;;1.83;1.13;;;18.00;60.60;;;;;;7406824;19;19931;-84
2022/12/20 11:23:26;;;;;;;2.78;0.88;;;18.10;60.50;;;;;;7406180;19;19945;-78
2022/12/20 11:26:10;;;;;;;1.08;0.70;;;18.20;60.40;;;;;;7408835;19;19922;-81
2022/12/20 11:28:55;;;;;;;1.20;0.52;;;18.30;60.20;;;;;;7410069;19;20035;-85
2022/12/20 11:31:40;;;;;;;1.35;0.80;;;18.40;60.10;;;;;;7406452;19;19918;-82
2022/12/20 11:34:27;;;;;;;1.75;1.27;;;18.50;60.00;;;;;;7373713;19;19929;-86
2022/12/20 11:37:09;;;;;;;2.25;0.90;;;18.60;60.00;;;;;;7270396;19;71793;-85
2022/12/20 11:39:48;;;;;;;1.30;0.80;;;18.60;59.90;;;;;;7406056;19;19910;-85
2022/12/20 11:42:27;;;;;;;1.88;0.70;;;18.70;59.90;;;;;;7410381;19;19957;-82
2022/12/20 11:45:06;;;;;;;1.58;0.73;;;18.70;59.80;;;;;;7406039;19;19926;-81
2022/12/20 11:48:07;;;;;;;1.48;0.70;;;18.80;59.80;;;;;;7404740;19;19928;-73
2022/12/20 11:50:51;;;;;;;2.13;0.98;;;18.90;59.80;;;;;;7407202;19;19919;-61
2022/12/20 11:53:26;;;;;;;2.00;0.82;;;18.90;59.70;;;;;;7405814;19;19926;-68
2022/12/20 11:56:01;;;;;;;1.50;0.90;;;18.90;59.70;;;;;;7408496;19;19930;-68
2022/12/20 11:58:35;;;;;;;1.35;1.05;;;19.00;59.70;;;;;;7407674;19;19914;-68
2022/12/20 12:01:15;;;;;;;1.85;0.90;;;19.10;59.70;;;;;;7407641;19;19928;-60
2022/12/20 12:04:01;;;;;;;1.88;1.33;;;19.10;59.70;;;;;;7399838;19;19934;-83
2022/12/20 12:06:33;;;;;;;1.23;0.20;;;19.10;59.70;;;;;;7405831;19;20265;-86
2022/12/20 12:09:15;;;;;;;1.63;0.70;;;19.10;59.60;;;;;;7405416;19;19919;-85
2022/12/20 12:11:49;;;;;;;1.25;0.82;;;19.20;59.70;;;;;;7408046;19;19918;-78
2022/12/20 12:14:29;;;;;;;1.67;1.25;;;19.20;59.60;;;;;;7403150;19;19996;-78
2022/12/20 12:17:01;;;;;;;3.15;1.10;;;19.30;59.60;;;;;;7404704;19;19945;-76
2022/12/20 12:19:36;;;;;;;1.52;0.75;;;19.30;59.60;;;;;;7403101;19;19923;-78
2022/12/20 12:22:13;;;;;;;1.45;0.77;;;19.30;59.60;;;;;;7405239;19;19929;-77
2022/12/20 12:24:49;;;;;;;1.88;0.80;;;19.30;59.50;;;;;;7404677;19;19923;-78
2022/12/20 12:27:25;;;;;;;1.20;0.30;;;19.30;59.60;;;;;;7406588;19;20276;-82
2022/12/20 12:29:55;;;;;;;1.70;1.20;;;19.40;59.60;;;;;;7400544;19;19958;-59
2022/12/20 12:32:32;;;;;;;1.73;0.82;;;19.40;59.70;;;;;;7403220;19;19974;-60
2022/12/20 12:35:19;;;;;;;1.50;0.85;;;19.40;59.60;;;;;;7405020;19;19914;-60
2022/12/20 12:37:57;;;;;;;1.00;0.73;;;19.40;59.60;;;;;;7403660;19;20198;-60
2022/12/20 12:41:01;;;;;;;1.38;0.70;;;19.40;59.60;;;;;;7404679;19;19930;-59
2022/12/20 12:43:51;;;;;;;1.25;0.65;;;19.50;59.70;;;;;;7403582;19;19927;-60
2022/12/20 12:46:25;;;;;;;1.13;0.73;;;19.50;59.60;;;;;;7404351;19;19931;-60
2022/12/20 12:49:01;;;;;;;1.60;0.85;;;19.50;59.60;;;;;;7403633;19;19915;-60
2022/12/20 12:51:36;;;;;;;2.75;0.80;;;19.50;59.50;;;;;;7404968;19;20342;-60
2022/12/20 12:54:19;;;;;;;1.23;0.20;;;19.50;59.40;;;;;;7404925;19;20269;-60
2022/12/20 12:56:49;;;;;;;1.92;0.77;;;19.60;59.50;;;;;;7405345;19;19919;-60
2022/12/20 12:59:26;;;;;;;1.33;0.73;;;19.60;59.50;;;;;;7404500;19;19922;-59
2022/12/20 13:01:57;;;;;;;2.15;0.80;;;19.60;59.50;;;;;;7402732;19;19929;-61
2022/12/20 13:04:29;;;;;;;0.80;0.17;;;19.60;59.40;;;;;;7406093;19;19929;-59
2022/12/20 13:07:03;;;;;;;1.25;0.93;;;19.60;59.40;;;;;;7404257;19;19923;-59
2022/12/20 13:09:44;;;;;;;1.17;0.73;;;19.60;59.40;;;;;;7402564;19;19926;-60
2022/12/20 13:12:49;;;;;;;1.45;0.95;;;19.70;59.50;;;;;;7404582;19;19914;-60
2022/12/20 13:15:47;;;;;;;1.23;0.32;;;19.70;59.50;;;;;;7405212;19;20283;-60
2022/12/20 13:18:23;;;;;;;;;;;19.70;60.10;;;;;;7412347;19;19952;-60
2022/12/20 13:21:27;;;;;;;1.35;0.70;;;19.70;59.50;;;;;;7410940;19;19930;-60
2022/12/20 13:24:43;;;;;;;1.88;0.93;;;19.70;59.40;;;;;;7407958;19;19923;-60
2022/12/20 13:27:37;;;;;;;2.13;0.90;;;19.70;59.30;;;;;;7408377;19;19922;-60
2022/12/20 13:30:30;;;;;;;1.42;0.85;;;19.70;59.30;;;;;;7408352;19;19925;-60
2022/12/20 13:33:40;;;;;;;2.10;0.80;;;19.80;59.30;;;;;;7410127;19;19919;-59
2022/12/20 13:36:36;;;;;;;1.45;0.93;;;19.80;59.30;;;;;;7407463;19;19982;-60